Time;durP1;ratioP1;P1;durP2;ratioP2;P2;SDS_P1;SDS_P2;PMS_P1;PMS_P2;Temp;Humidity;BMP_temperature;BMP_pressure;BME280_temperature;BME280_humidity;BME280_pressure;Samples;Min_cycle;Max_cycle;Signal;HPM_P1;HPM_P2
2021/03/15 12:08:08;;;;;;;71.90;68.68;;;;;;;;;;5090947;27;21118;-76
2021/03/15 12:10:34;;;;;;;68.47;65.57;;;;;;;;;;5090879;28;20172;-76
2021/03/15 12:13:00;;;;;;;73.03;69.53;;;;;;;;;;5090835;28;20163;-76
2021/03/15 12:15:26;;;;;;;77.13;73.45;;;;;;;;;;5089526;28;20175;-77
2021/03/15 12:17:52;;;;;;;75.90;72.40;;;;;;;;;;5090702;28;20263;-77
2021/03/15 12:20:18;;;;;;;83.80;80.18;;;;;;;;;;5090672;28;20207;-78
2021/03/15 12:22:46;;;;;;;97.28;93.03;;;;;;;;;;5090644;28;20174;-77
2021/03/15 12:25:12;;;;;;;99.18;94.75;;;;;;;;;;5090488;28;20735;-79
2021/03/15 12:27:39;;;;;;;99.78;94.85;;;;;;;;;;5090464;28;20656;-78
2021/03/15 12:30:05;;;;;;;102.80;98.15;;;;;;;;;;5090492;28;20242;-77
2021/03/15 12:32:31;;;;;;;101.40;96.90;;;;;;;;;;5090470;28;20168;-77
2021/03/15 12:34:57;;;;;;;100.78;96.32;;;;;;;;;;5090428;28;20501;-78
2021/03/15 12:37:23;;;;;;;90.10;86.20;;;;;;;;;;5089087;28;20179;-79
2021/03/15 12:39:49;;;;;;;81.28;77.60;;;;;;;;;;5090333;28;20175;-78
2021/03/15 12:42:17;;;;;;;66.60;63.65;;;;;;;;;;5090284;28;20174;-78
2021/03/15 12:44:43;;;;;;;61.90;59.05;;;;;;;;;;5090250;28;20160;-80
2021/03/15 12:47:09;;;;;;;60.42;57.83;;;;;;;;;;5090103;28;20199;-78
2021/03/15 12:49:35;;;;;;;58.70;56.10;;;;;;;;;;5090112;28;20190;-78
2021/03/15 12:52:01;;;;;;;54.17;51.80;;;;;;;;;;5090032;28;20634;-76
2021/03/15 12:54:27;;;;;;;55.17;52.78;;;;;;;;;;5089965;28;20179;-77
2021/03/15 12:56:53;;;;;;;59.88;57.22;;;;;;;;;;5089991;28;20260;-78
2021/03/15 12:59:19;;;;;;;68.60;65.60;;;;;;;;;;5089979;28;20172;-78
2021/03/15 13:01:45;;;;;;;77.85;74.50;;;;;;;;;;5089892;28;20251;-73
2021/03/15 13:04:11;;;;;;;68.57;65.47;;;;;;;;;;5088546;28;20179;-73
2021/03/15 13:06:37;;;;;;;56.20;53.90;;;;;;;;;;5088165;28;20223;-76
2021/03/15 13:09:04;;;;;;;53.53;51.28;;;;;;;;;;5089910;28;20175;-76
2021/03/15 13:11:30;;;;;;;52.83;50.47;;;;;;;;;;5089757;28;20179;-76
2021/03/15 13:13:56;;;;;;;53.55;51.15;;;;;;;;;;5089711;28;20164;-76
2021/03/15 13:16:22;;;;;;;55.45;53.15;;;;;;;;;;5089614;28;20168;-76
2021/03/15 13:18:48;;;;;;;63.67;60.97;;;;;;;;;;5080140;28;20169;-76
2021/03/15 13:21:14;;;;;;;74.65;71.25;;;;;;;;;;5075998;28;20169;-75
2021/03/15 13:23:40;;;;;;;79.72;76.13;;;;;;;;;;5076018;28;20176;-76
2021/03/15 13:26:06;;;;;;;85.13;81.38;;;;;;;;;;5074557;28;20196;-76
2021/03/15 13:28:32;;;;;;;93.43;89.35;;;;;;;;;;5075952;28;20164;-76
2021/03/15 13:30:59;;;;;;;87.35;83.40;;;;;;;;;;5075914;28;20168;-76
2021/03/15 13:33:25;;;;;;;94.65;89.75;;;;;;;;;;5075839;28;20636;-77
2021/03/15 13:35:52;;;;;;;84.60;80.90;;;;;;;;;;5075827;28;20172;-77
2021/03/15 13:38:18;;;;;;;84.10;80.30;;;;;;;;;;5075749;28;20589;-80
2021/03/15 13:40:44;;;;;;;89.03;85.18;;;;;;;;;;5074423;28;20173;-81
2021/03/15 13:43:10;;;;;;;91.22;87.25;;;;;;;;;;5075595;28;20196;-75
2021/03/15 13:45:37;;;;;;;90.13;86.13;;;;;;;;;;5075652;28;20171;-76
2021/03/15 13:48:04;;;;;;;88.20;84.35;;;;;;;;;;5075475;28;20219;-76
2021/03/15 13:50:30;;;;;;;111.75;106.68;;;;;;;;;;5074240;28;20267;-78
2021/03/15 13:52:56;;;;;;;117.40;112.05;;;;;;;;;;5075643;28;20240;-78
2021/03/15 13:55:22;;;;;;;121.03;115.57;;;;;;;;;;5075448;28;20168;-78
2021/03/15 13:57:48;;;;;;;132.65;126.60;;;;;;;;;;5075383;28;20172;-76
2021/03/15 14:00:14;;;;;;;138.15;131.75;;;;;;;;;;5075307;28;20218;-76
2021/03/15 14:02:41;;;;;;;159.32;152.10;;;;;;;;;;5075274;28;20216;-76
2021/03/15 14:05:07;;;;;;;128.10;122.35;;;;;;;;;;5073806;28;20640;-76
2021/03/15 14:07:33;;;;;;;131.48;125.55;;;;;;;;;;5074989;28;20250;-75
2021/03/15 14:09:59;;;;;;;132.80;126.78;;;;;;;;;;5075152;28;20620;-79
2021/03/15 14:12:25;;;;;;;135.40;129.27;;;;;;;;;;5075049;28;20263;-78
2021/03/15 14:14:51;;;;;;;136.32;130.15;;;;;;;;;;5073793;28;20204;-77
2021/03/15 14:17:18;;;;;;;127.78;122.03;;;;;;;;;;5075048;28;20221;-76
2021/03/15 14:19:44;;;;;;;129.55;123.72;;;;;;;;;;5074815;28;20200;-77
2021/03/15 14:35:48;;;;;;;74.50;71.25;;;;;;;;;;5090927;28;20546;-76
2021/03/15 14:38:14;;;;;;;81.28;77.75;;;;;;;;;;5090830;28;20171;-78
2021/03/15 14:40:40;;;;;;;83.85;80.20;;;;;;;;;;5090847;28;20249;-77
2021/03/15 14:43:06;;;;;;;89.78;85.55;;;;;;;;;;5090746;28;20164;-78
2021/03/15 14:45:32;;;;;;;101.70;97.15;;;;;;;;;;5090731;28;20199;-78
2021/03/15 14:47:58;;;;;;;99.63;95.28;;;;;;;;;;5090628;28;20200;-78
2021/03/15 14:50:24;;;;;;;98.07;93.53;;;;;;;;;;5090647;28;20179;-77
2021/03/15 14:52:50;;;;;;;115.88;110.70;;;;;;;;;;5090569;28;20168;-77
2021/03/15 14:55:16;;;;;;;137.60;131.20;;;;;;;;;;5090478;28;20679;-78
2021/03/15 14:57:42;;;;;;;148.07;141.23;;;;;;;;;;5090460;28;20171;-78
2021/03/15 15:00:08;;;;;;;144.13;137.45;;;;;;;;;;5090424;28;20171;-78
2021/03/15 15:02:34;;;;;;;146.00;139.30;;;;;;;;;;5089102;28;20271;-77
2021/03/15 15:05:00;;;;;;;145.98;139.27;;;;;;;;;;5090328;28;20175;-76
2021/03/15 15:07:26;;;;;;;158.27;150.95;;;;;;;;;;5090198;28;20225;-78
2021/03/15 15:09:52;;;;;;;154.32;147.18;;;;;;;;;;5090311;28;20171;-77
2021/03/15 15:12:21;;;;;;;159.35;150.45;;;;;;;;;;5090246;28;20221;-77
2021/03/15 15:14:47;;;;;;;146.65;139.95;;;;;;;;;;5090165;28;20196;-79
2021/03/15 15:17:13;;;;;;;147.15;140.05;;;;;;;;;;5090136;28;20160;-77
2021/03/15 15:19:39;;;;;;;161.50;154.05;;;;;;;;;;5090085;28;20202;-78
2021/03/15 15:22:06;;;;;;;158.77;148.70;;;;;;;;;;5090070;28;20164;-78
2021/03/15 15:24:32;;;;;;;159.00;151.45;;;;;;;;;;5089999;28;20225;-80
2021/03/15 15:26:58;;;;;;;147.85;141.02;;;;;;;;;;5089960;28;20557;-80
2021/03/15 15:29:24;;;;;;;146.55;139.80;;;;;;;;;;5089966;28;20168;-80
2021/03/15 15:31:50;;;;;;;131.77;125.70;;;;;;;;;;5089831;28;20176;-80
2021/03/15 15:34:17;;;;;;;131.30;125.35;;;;;;;;;;5089654;28;20230;-81
2021/03/15 15:36:43;;;;;;;131.68;125.53;;;;;;;;;;5089740;28;20160;-79
2021/03/15 15:39:09;;;;;;;113.63;108.57;;;;;;;;;;5089711;28;20569;-77
2021/03/15 15:41:35;;;;;;;118.10;112.68;;;;;;;;;;5089724;28;20164;-79
2021/03/15 15:44:01;;;;;;;109.78;104.93;;;;;;;;;;5089552;28;20716;-80
2021/03/15 15:46:27;;;;;;;110.43;105.00;;;;;;;;;;5080140;28;20172;-82
2021/03/15 15:48:53;;;;;;;119.75;113.97;;;;;;;;;;5076042;28;20168;-80
2021/03/15 15:51:19;;;;;;;122.57;117.05;;;;;;;;;;5074719;28;20207;-80
2021/03/15 15:53:46;;;;;;;124.22;118.55;;;;;;;;;;5074584;28;20200;-79
2021/03/15 15:56:12;;;;;;;140.75;134.27;;;;;;;;;;5075932;28;20230;-72
2021/03/15 15:58:38;;;;;;;143.05;136.43;;;;;;;;;;5075896;28;20172;-73
2021/03/15 16:01:04;;;;;;;144.07;137.32;;;;;;;;;;5074535;28;20169;-73
2021/03/15 16:03:30;;;;;;;131.55;125.57;;;;;;;;;;5075802;28;20243;-73
2021/03/15 16:05:56;;;;;;;137.15;130.60;;;;;;;;;;5075779;28;20168;-72
2021/03/15 16:08:22;;;;;;;130.57;124.65;;;;;;;;;;5074428;28;20260;-73
2021/03/15 16:10:48;;;;;;;140.23;133.80;;;;;;;;;;5075695;28;20630;-73
2021/03/15 16:13:17;;;;;;;136.40;130.15;;;;;;;;;;5075744;28;20524;-79
2021/03/15 16:15:44;;;;;;;143.63;136.38;;;;;;;;;;5074500;28;20211;-79
2021/03/15 16:18:10;;;;;;;143.73;137.15;;;;;;;;;;5076692;28;20160;-79
2021/03/15 16:20:37;;;;;;;132.70;126.63;;;;;;;;;;5074022;28;20229;-79
2021/03/15 16:23:04;;;;;;;130.82;124.88;;;;;;;;;;5075174;28;20172;-80
2021/03/15 16:25:30;;;;;;;129.18;122.90;;;;;;;;;;5074928;28;20556;-79
2021/03/15 16:28:22;;;;;;;128.40;122.55;;;;;;;;;;5075138;28;20176;-80
2021/03/15 16:30:48;;;;;;;117.28;111.72;;;;;;;;;;5075300;28;20627;-79
2021/03/15 16:33:14;;;;;;;124.82;119.18;;;;;;;;;;5073910;28;20203;-79
2021/03/15 16:35:40;;;;;;;122.90;117.40;;;;;;;;;;5074697;28;20563;-79
2021/03/15 16:38:06;;;;;;;126.00;120.13;;;;;;;;;;5074308;28;20295;-79
2021/03/15 16:40:33;;;;;;;124.30;118.57;;;;;;;;;;5073688;28;20588;-79
2021/03/15 16:42:59;;;;;;;126.28;120.63;;;;;;;;;;5074943;28;20254;-79
2021/03/15 16:45:25;;;;;;;119.80;114.40;;;;;;;;;;5074876;28;20195;-79
2021/03/15 16:47:51;;;;;;;119.20;113.80;;;;;;;;;;5074883;28;20169;-79
2021/03/15 16:50:17;;;;;;;114.70;109.53;;;;;;;;;;5073501;28;20172;-79
2021/03/15 16:52:43;;;;;;;116.45;111.13;;;;;;;;;;5073496;28;20181;-79
2021/03/15 16:55:10;;;;;;;112.50;107.40;;;;;;;;;;5074995;28;20200;-79
2021/03/15 16:57:36;;;;;;;109.05;104.20;;;;;;;;;;5073760;28;20168;-79
2021/03/15 17:00:04;;;;;;;109.07;104.10;;;;;;;;;;5073294;28;20218;-78
2021/03/15 17:02:30;;;;;;;107.97;103.07;;;;;;;;;;5074580;28;20234;-78
2021/03/15 17:04:56;;;;;;;110.68;105.15;;;;;;;;;;5075145;28;20172;-79
2021/03/15 17:07:22;;;;;;;109.78;104.70;;;;;;;;;;5074546;28;20175;-79
2021/03/15 17:09:48;;;;;;;110.80;105.80;;;;;;;;;;5074545;28;20221;-81
